Time;durP1;ratioP1;P1;durP2;ratioP2;P2;SDS_P1;SDS_P2;PMS_P1;PMS_P2;Temp;Humidity;BMP_temperature;BMP_pressure;BME280_temperature;BME280_humidity;BME280_pressure;Samples;Min_cycle;Max_cycle;Signal;HPM_P1;HPM_P2
2021/04/08 00:01:33;;;;;;;86.28;76.35;;;2.80;99.90;;;;;;5075032;28;20238;-78
2021/04/08 00:03:59;;;;;;;83.03;63.97;;;2.80;99.90;;;;;;5071207;28;20248;-78
2021/04/08 00:06:26;;;;;;;95.53;79.25;;;2.70;99.90;;;;;;5066418;28;20228;-77
2021/04/08 00:08:52;;;;;;;95.50;65.03;;;2.70;99.90;;;;;;5071396;28;20205;-78
2021/04/08 00:11:19;;;;;;;117.20;79.22;;;2.70;99.90;;;;;;5068039;28;20201;-78
2021/04/08 00:13:46;;;;;;;120.07;90.25;;;2.70;99.90;;;;;;5084672;28;20200;-78
2021/04/08 00:16:12;;;;;;;108.20;81.50;;;2.70;99.90;;;;;;5077438;28;20211;-77
2021/04/08 00:18:39;;;;;;;109.32;83.60;;;2.60;99.90;;;;;;5076530;28;20205;-77
2021/04/08 00:21:05;;;;;;;108.90;81.80;;;2.60;99.90;;;;;;5078358;28;20205;-77
2021/04/08 00:23:32;;;;;;;115.90;86.15;;;2.60;99.90;;;;;;5070734;28;20638;-77
2021/04/08 00:25:59;;;;;;;113.40;70.85;;;2.60;99.90;;;;;;5065818;28;20600;-77
2021/04/08 00:28:26;;;;;;;122.15;86.55;;;2.60;99.90;;;;;;5065857;28;20204;-77
2021/04/08 00:30:53;;;;;;;110.95;81.70;;;2.60;99.90;;;;;;5075205;28;20208;-77
2021/04/08 00:33:19;;;;;;;129.40;89.47;;;2.60;99.90;;;;;;5068497;28;20212;-77
2021/04/08 00:35:46;;;;;;;114.13;74.82;;;2.60;99.90;;;;;;5067561;28;20216;-78
2021/04/08 00:38:13;;;;;;;114.18;78.93;;;2.60;99.90;;;;;;5076682;28;20212;-78
2021/04/08 00:40:40;;;;;;;130.07;87.20;;;2.60;99.90;;;;;;5073430;28;20205;-77
2021/04/08 00:43:07;;;;;;;127.68;89.18;;;2.60;99.90;;;;;;5066296;28;20581;-77
2021/04/08 00:45:35;;;;;;;114.95;68.28;;;2.70;99.90;;;;;;5074490;28;20228;-77
2021/04/08 00:48:02;;;;;;;113.88;69.30;;;2.70;99.90;;;;;;5065188;28;20227;-77
2021/04/08 00:50:29;;;;;;;132.95;88.57;;;2.70;99.90;;;;;;5076106;28;20215;-78
2021/04/08 00:52:57;;;;;;;89.15;61.45;;;2.70;99.90;;;;;;5066197;28;20205;-78
2021/04/08 00:55:28;;;;;;;40.03;36.30;;;2.70;99.90;;;;;;5065663;28;20212;-78
2021/04/08 00:57:56;;;;;;;60.20;53.97;;;2.70;99.90;;;;;;5067330;28;20208;-77
2021/04/08 01:00:24;;;;;;;35.83;32.85;;;2.60;99.90;;;;;;5066236;28;20208;-77
2021/04/08 01:02:51;;;;;;;80.50;66.05;;;2.60;99.90;;;;;;5073311;28;20243;-77
2021/04/08 01:05:18;;;;;;;83.72;67.80;;;2.60;99.90;;;;;;5069193;28;20274;-77
2021/04/08 01:07:45;;;;;;;44.25;40.47;;;2.60;99.90;;;;;;5069418;28;20289;-77
2021/04/08 01:10:12;;;;;;;56.53;50.67;;;2.70;99.90;;;;;;5071298;28;20259;-77
2021/04/08 01:12:39;;;;;;;72.05;62.35;;;2.70;99.90;;;;;;5076403;28;20235;-77
2021/04/08 01:15:07;;;;;;;35.42;32.55;;;2.70;99.90;;;;;;5070134;28;20275;-77
2021/04/08 01:17:42;;;;;;;52.25;47.38;;;2.70;99.90;;;;;;5068259;28;20957;-77
2021/04/08 01:20:34;;;;;;;35.33;31.95;;;2.70;99.90;;;;;;5069289;28;20288;-77
2021/04/08 01:23:32;;;;;;;212.13;105.75;;;2.60;99.90;;;;;;5064435;28;20204;-77
2021/04/08 01:26:39;;;;;;;53.40;42.25;;;2.60;99.90;;;;;;5065045;28;20229;-77
2021/04/08 01:29:10;;;;;;;33.88;30.58;;;2.60;99.90;;;;;;4993706;28;20707;-77
2021/04/08 01:31:40;;;;;;;40.80;37.40;;;2.60;99.90;;;;;;5002205;28;20245;-77
2021/04/08 01:34:12;;;;;;;127.28;70.25;;;2.50;99.90;;;;;;5001839;28;20736;-77
2021/04/08 01:36:41;;;;;;;49.83;40.03;;;2.60;99.90;;;;;;5001832;28;20211;-77
2021/04/08 01:39:11;;;;;;;87.93;58.45;;;2.60;99.90;;;;;;5002108;28;20214;-77
2021/04/08 01:41:40;;;;;;;61.78;53.03;;;2.70;99.90;;;;;;5000859;28;20744;-77
2021/04/08 01:44:11;;;;;;;48.08;43.33;;;2.70;99.90;;;;;;5001480;28;20338;-77
2021/04/08 01:46:41;;;;;;;47.75;42.78;;;2.70;99.90;;;;;;5000735;28;20214;-77
2021/04/08 01:49:09;;;;;;;58.45;53.05;;;2.70;99.90;;;;;;5001965;28;20598;-77
2021/04/08 01:51:37;;;;;;;60.80;54.55;;;2.80;99.90;;;;;;5001750;28;20211;-77
2021/04/08 01:54:06;;;;;;;70.53;58.47;;;2.80;99.90;;;;;;5001417;28;20203;-77
2021/04/08 01:56:35;;;;;;;68.15;61.03;;;2.90;99.90;;;;;;5001265;28;20210;-77
2021/04/08 01:59:02;;;;;;;74.30;63.63;;;2.90;99.90;;;;;;5000983;28;20210;-77
2021/04/08 02:01:29;;;;;;;72.25;65.00;;;2.90;99.90;;;;;;5001855;28;20295;-77
2021/04/08 02:03:57;;;;;;;72.65;64.90;;;2.90;99.90;;;;;;5014861;28;20809;-77
2021/04/08 02:06:27;;;;;;;56.90;50.90;;;2.90;99.90;;;;;;5076083;28;20201;-77
2021/04/08 02:08:55;;;;;;;68.95;61.47;;;2.90;99.90;;;;;;5071142;28;20217;-76
2021/04/08 02:11:23;;;;;;;76.45;66.38;;;2.80;99.90;;;;;;5075954;28;20394;-77
2021/04/08 02:13:51;;;;;;;85.65;72.53;;;2.80;99.90;;;;;;5070523;28;20201;-77
2021/04/08 02:16:19;;;;;;;72.68;63.85;;;2.80;99.90;;;;;;5070655;28;20201;-77
2021/04/08 02:18:48;;;;;;;76.65;68.43;;;2.80;99.90;;;;;;5070690;28;20228;-77
2021/04/08 02:21:16;;;;;;;87.07;65.05;;;2.70;99.90;;;;;;5063842;28;20224;-77
2021/04/08 02:23:47;;;;;;;77.50;65.93;;;2.80;99.90;;;;;;5069802;28;20204;-76
2021/04/08 02:26:16;;;;;;;75.35;60.03;;;2.80;99.90;;;;;;5065970;28;20233;-77
2021/04/08 02:28:43;;;;;;;93.78;70.65;;;2.70;99.90;;;;;;5069071;28;20209;-77
2021/04/08 02:31:11;;;;;;;83.93;64.43;;;2.50;99.90;;;;;;5070866;28;20201;-78
2021/04/08 02:33:38;;;;;;;87.72;65.10;;;2.40;99.90;;;;;;5063016;28;20212;-77
2021/04/08 02:36:06;;;;;;;86.50;67.18;;;2.50;99.90;;;;;;5071419;28;20200;-77
2021/04/08 02:38:36;;;;;;;85.57;60.05;;;2.50;99.90;;;;;;5067366;28;20239;-77
2021/04/08 02:41:05;;;;;;;82.93;65.60;;;2.40;99.90;;;;;;5074891;28;20630;-76
2021/04/08 02:43:31;;;;;;;77.07;65.00;;;2.40;99.90;;;;;;5071986;28;20725;-76
2021/04/08 02:45:58;;;;;;;82.30;66.00;;;2.40;99.90;;;;;;5071318;28;20248;-77
2021/04/08 02:48:26;;;;;;;87.22;64.88;;;2.40;99.90;;;;;;5078021;28;20197;-77
2021/04/08 02:50:54;;;;;;;83.05;64.43;;;2.40;99.90;;;;;;5067486;28;20209;-77
2021/04/08 02:53:26;;;;;;;88.70;68.65;;;2.40;99.90;;;;;;5071094;28;20209;-76
2021/04/08 02:55:58;;;;;;;95.22;72.13;;;2.50;99.90;;;;;;5081500;28;20213;-76
2021/04/08 02:58:28;;;;;;;96.20;76.85;;;2.60;99.90;;;;;;5067615;28;20205;-77
2021/04/08 03:01:00;;;;;;;97.50;74.53;;;2.60;99.90;;;;;;5067140;28;20205;-76
2021/04/08 03:03:33;;;;;;;87.13;64.22;;;2.60;99.90;;;;;;5075582;28;20229;-77
2021/04/08 03:06:06;;;;;;;89.18;74.82;;;2.60;99.90;;;;;;5073711;28;20224;-77
2021/04/08 03:08:34;;;;;;;80.32;68.53;;;2.50;99.90;;;;;;5071448;28;20204;-76
2021/04/08 03:11:04;;;;;;;82.40;60.47;;;2.50;99.90;;;;;;5067522;28;20212;-77
2021/04/08 03:13:34;;;;;;;86.65;70.28;;;2.40;99.90;;;;;;5072197;28;20196;-77
2021/04/08 03:16:04;;;;;;;85.75;67.93;;;2.40;99.90;;;;;;5079576;28;20196;-77
2021/04/08 03:18:32;;;;;;;80.75;59.22;;;2.30;99.90;;;;;;5074990;28;20198;-76
2021/04/08 03:20:59;;;;;;;99.32;75.18;;;2.30;99.90;;;;;;5080352;28;20211;-76
2021/04/08 03:23:26;;;;;;;63.80;56.38;;;2.30;99.90;;;;;;5069827;28;20198;-76
2021/04/08 03:25:54;;;;;;;107.63;74.68;;;2.20;99.90;;;;;;5072586;28;20233;-76
2021/04/08 03:28:23;;;;;;;67.20;51.40;;;2.10;99.90;;;;;;5066345;28;20205;-76
2021/04/08 03:30:50;;;;;;;117.13;81.20;;;2.20;99.90;;;;;;5066379;28;20472;-76
2021/04/08 03:33:17;;;;;;;104.65;66.40;;;2.30;99.90;;;;;;5074763;28;20204;-77
2021/04/08 03:35:46;;;;;;;116.93;77.40;;;2.20;99.90;;;;;;5075236;28;20208;-77
2021/04/08 03:38:15;;;;;;;182.00;93.82;;;2.20;99.90;;;;;;5078279;28;20212;-77
2021/04/08 03:40:42;;;;;;;110.32;77.40;;;2.20;99.90;;;;;;5069057;28;20209;-77
2021/04/08 03:43:08;;;;;;;89.50;58.13;;;2.20;99.90;;;;;;5066394;28;20209;-77
2021/04/08 03:45:37;;;;;;;95.20;72.03;;;2.10;99.90;;;;;;5070953;28;20236;-77
2021/04/08 03:48:05;;;;;;;115.13;74.57;;;2.10;99.90;;;;;;5072004;28;20201;-77
2021/04/08 03:50:32;;;;;;;77.57;57.53;;;2.10;99.90;;;;;;5070661;28;20202;-77
2021/04/08 03:52:59;;;;;;;87.85;63.30;;;2.10;99.90;;;;;;5073292;28;20201;-77
2021/04/08 03:55:28;;;;;;;84.88;71.13;;;2.10;99.90;;;;;;5071563;28;20201;-77
2021/04/08 03:57:57;;;;;;;98.85;74.20;;;2.10;99.90;;;;;;5076422;28;20282;-77
2021/04/08 04:00:24;;;;;;;105.43;70.90;;;2.10;99.90;;;;;;5064899;28;20220;-77
2021/04/08 04:02:52;;;;;;;116.50;81.65;;;2.00;99.90;;;;;;5073963;28;20236;-76
2021/04/08 04:05:19;;;;;;;118.50;75.60;;;2.00;99.90;;;;;;5079814;28;20642;-76
2021/04/08 04:07:50;;;;;;;114.63;77.97;;;2.10;99.90;;;;;;5079826;28;20231;-76
2021/04/08 04:10:19;;;;;;;118.13;77.70;;;2.00;99.90;;;;;;5069548;28;20643;-76
2021/04/08 04:12:47;;;;;;;109.53;72.30;;;2.10;99.90;;;;;;5076993;28;20232;-76
2021/04/08 04:15:15;;;;;;;108.50;70.63;;;2.10;99.90;;;;;;5066480;28;20205;-76
2021/04/08 04:17:42;;;;;;;111.97;81.03;;;2.10;99.90;;;;;;5065437;28;20205;-76
2021/04/08 04:20:10;;;;;;;109.60;66.50;;;2.10;99.90;;;;;;5079642;28;20633;-77
2021/04/08 04:22:38;;;;;;;95.55;59.90;;;2.20;99.90;;;;;;5066893;28;20233;-77
2021/04/08 04:25:06;;;;;;;112.55;78.30;;;2.20;99.90;;;;;;5064867;28;20224;-77
2021/04/08 04:27:32;;;;;;;112.53;75.40;;;2.30;99.90;;;;;;5065049;28;20251;-76
2021/04/08 04:29:59;;;;;;;128.85;83.97;;;2.30;99.90;;;;;;5071867;28;20201;-77
2021/04/08 04:32:25;;;;;;;123.22;70.25;;;2.40;99.90;;;;;;5070195;28;20208;-76
2021/04/08 04:34:52;;;;;;;125.93;87.10;;;2.20;99.90;;;;;;5070046;28;20205;-77
2021/04/08 04:37:20;;;;;;;132.20;84.13;;;2.30;99.90;;;;;;5070694;28;20204;-77
2021/04/08 04:39:46;;;;;;;128.82;75.32;;;2.40;99.90;;;;;;5077473;28;21142;-76
2021/04/08 04:42:13;;;;;;;123.32;72.90;;;2.40;99.90;;;;;;5075803;28;20591;-76
2021/04/08 04:44:41;;;;;;;139.55;90.90;;;2.40;99.90;;;;;;5069090;28;20225;-77
2021/04/08 04:47:07;;;;;;;150.60;92.25;;;2.50;99.90;;;;;;5065583;28;20201;-77
2021/04/08 04:49:34;;;;;;;133.23;74.95;;;2.60;99.90;;;;;;5069070;28;20197;-76
2021/04/08 04:52:01;;;;;;;125.97;79.18;;;2.70;99.90;;;;;;5069004;28;20211;-77
2021/04/08 04:54:28;;;;;;;135.63;97.50;;;2.80;99.90;;;;;;5076645;28;20197;-77
2021/04/08 04:56:54;;;;;;;138.30;94.35;;;2.90;99.90;;;;;;5056511;28;20193;-76
2021/04/08 04:59:21;;;;;;;139.15;110.35;;;2.90;99.90;;;;;;5064556;28;20468;-76
2021/04/08 05:01:48;;;;;;;123.85;95.75;;;3.00;99.90;;;;;;5067262;28;20236;-76
2021/04/08 05:04:14;;;;;;;127.78;96.55;;;3.00;99.90;;;;;;5073995;28;20229;-76
2021/04/08 05:06:41;;;;;;;125.70;93.82;;;3.10;99.90;;;;;;5073643;28;20201;-77
2021/04/08 05:09:07;;;;;;;126.97;95.82;;;3.10;99.90;;;;;;5071769;28;20570;-76
2021/04/08 05:11:35;;;;;;;131.07;97.28;;;3.10;99.90;;;;;;5068585;28;20247;-77
2021/04/08 05:14:01;;;;;;;130.98;79.65;;;3.20;99.90;;;;;;5069939;28;20201;-77
2021/04/08 05:16:28;;;;;;;135.10;95.68;;;3.30;99.90;;;;;;5071804;28;20204;-76
2021/04/08 05:18:55;;;;;;;119.40;80.35;;;3.40;99.90;;;;;;5064561;28;20205;-77
2021/04/08 05:21:21;;;;;;;129.15;87.45;;;3.40;99.90;;;;;;5075451;28;20228;-76
2021/04/08 05:23:48;;;;;;;143.40;101.28;;;3.50;99.90;;;;;;5046036;28;20217;-77
2021/04/08 05:26:14;;;;;;;141.30;101.13;;;3.50;99.90;;;;;;5067880;28;20229;-76
2021/04/08 05:28:42;;;;;;;146.02;99.30;;;3.50;99.90;;;;;;5068435;28;20213;-77
2021/04/08 05:31:09;;;;;;;152.45;101.05;;;3.60;99.90;;;;;;5068705;28;20212;-77
2021/04/08 05:33:35;;;;;;;135.52;102.88;;;3.70;99.90;;;;;;5073279;28;20196;-77
2021/04/08 05:36:02;;;;;;;126.13;88.53;;;3.70;99.90;;;;;;5072959;28;20205;-77
2021/04/08 05:38:28;;;;;;;133.77;90.45;;;3.70;99.90;;;;;;5073330;28;20201;-77
2021/04/08 05:40:55;;;;;;;136.60;105.63;;;3.80;99.90;;;;;;5065109;28;20258;-77
2021/04/08 05:43:21;;;;;;;141.13;106.75;;;3.80;99.90;;;;;;5071458;28;20208;-77
2021/04/08 05:45:49;;;;;;;145.27;111.30;;;3.80;99.90;;;;;;5068419;28;20224;-77
2021/04/08 05:48:15;;;;;;;149.40;104.97;;;3.90;99.90;;;;;;5065191;28;20210;-76
2021/04/08 05:50:42;;;;;;;147.73;105.28;;;3.90;99.90;;;;;;5084474;28;20255;-76
2021/04/08 05:53:08;;;;;;;150.95;106.88;;;3.90;99.90;;;;;;5075237;28;20201;-76
2021/04/08 05:55:35;;;;;;;150.48;111.03;;;3.90;99.90;;;;;;5071991;28;20208;-76
2021/04/08 05:58:01;;;;;;;166.38;118.40;;;4.00;99.90;;;;;;5071667;28;20197;-76
2021/04/08 06:00:28;;;;;;;129.52;95.95;;;4.00;99.90;;;;;;5067884;28;20351;-76
2021/04/08 06:02:55;;;;;;;158.65;111.25;;;4.10;99.90;;;;;;5080587;28;20224;-76
2021/04/08 06:05:22;;;;;;;149.93;108.82;;;4.20;99.90;;;;;;5065482;28;20225;-76
2021/04/08 06:07:49;;;;;;;154.20;103.32;;;4.20;99.90;;;;;;5063838;28;20251;-77
2021/04/08 06:10:16;;;;;;;144.77;109.22;;;4.30;99.90;;;;;;5063755;28;20197;-77
2021/04/08 06:12:44;;;;;;;159.23;110.60;;;4.20;99.90;;;;;;5074163;28;20204;-76
2021/04/08 06:15:12;;;;;;;146.77;95.95;;;4.10;99.90;;;;;;5073851;28;20205;-77
2021/04/08 06:17:39;;;;;;;155.38;109.80;;;4.10;99.90;;;;;;5068041;28;20209;-77
2021/04/08 06:20:16;;;;;;;161.45;115.82;;;4.20;99.90;;;;;;5077544;28;20226;-78
2021/04/08 06:22:43;;;;;;;163.68;118.55;;;4.40;99.90;;;;;;5073052;28;20257;-76
2021/04/08 06:25:10;;;;;;;154.90;101.97;;;4.50;99.90;;;;;;5072482;28;20216;-76
2021/04/08 06:27:37;;;;;;;179.75;129.63;;;4.60;99.90;;;;;;5067675;28;20666;-76
2021/04/08 06:30:05;;;;;;;152.98;105.65;;;4.80;99.90;;;;;;5067660;28;20208;-76
2021/04/08 06:32:31;;;;;;;174.57;135.35;;;5.00;99.90;;;;;;5075644;28;20248;-76
2021/04/08 06:34:58;;;;;;;166.70;128.20;;;5.00;99.90;;;;;;5070877;28;20244;-77
2021/04/08 06:37:25;;;;;;;163.70;113.05;;;5.10;99.90;;;;;;5074012;28;20201;-77
2021/04/08 06:39:52;;;;;;;180.50;137.63;;;5.10;99.90;;;;;;5076672;28;20212;-76
2021/04/08 06:42:20;;;;;;;181.77;143.95;;;5.20;99.90;;;;;;5066050;28;20210;-77
2021/04/08 06:44:49;;;;;;;170.15;138.05;;;5.30;99.90;;;;;;5075950;28;20603;-77
2021/04/08 06:47:20;;;;;;;183.85;144.68;;;5.40;99.90;;;;;;5074094;28;20228;-77
2021/04/08 06:49:50;;;;;;;169.77;142.00;;;5.50;99.90;;;;;;5077305;28;20201;-77
2021/04/08 06:52:19;;;;;;;148.38;132.48;;;5.70;99.90;;;;;;5080542;28;20658;-76
2021/04/08 06:54:46;;;;;;;146.00;114.85;;;5.60;99.90;;;;;;5069265;28;20210;-77
2021/04/08 06:57:18;;;;;;;155.05;122.70;;;5.80;99.90;;;;;;5072502;28;20547;-76
2021/04/08 06:59:46;;;;;;;155.82;135.55;;;5.90;99.90;;;;;;5068879;28;20202;-77
2021/04/08 07:02:15;;;;;;;155.52;134.18;;;6.00;99.90;;;;;;5080285;28;20209;-76
2021/04/08 07:04:41;;;;;;;170.63;152.70;;;6.10;99.90;;;;;;5070209;28;20247;-77
2021/04/08 07:07:08;;;;;;;160.73;144.43;;;6.30;99.90;;;;;;5073856;28;20294;-76
2021/04/08 07:09:34;;;;;;;152.25;137.10;;;6.30;99.90;;;;;;5070536;28;20197;-77
2021/04/08 07:12:03;;;;;;;157.88;140.77;;;6.40;99.90;;;;;;5083287;28;20205;-76
2021/04/08 07:14:30;;;;;;;161.77;144.35;;;6.50;99.90;;;;;;5071218;28;20228;-76
2021/04/08 07:16:57;;;;;;;149.95;128.65;;;6.60;99.90;;;;;;5082134;28;20204;-77
2021/04/08 07:19:23;;;;;;;190.95;170.88;;;6.60;99.90;;;;;;5078855;28;20197;-77
2021/04/08 07:21:50;;;;;;;154.05;134.60;;;6.50;99.90;;;;;;5075173;28;20203;-77
2021/04/08 07:24:18;;;;;;;180.73;162.23;;;6.70;99.90;;;;;;5075625;28;20207;-77
2021/04/08 07:27:00;;;;;;;161.57;141.98;;;6.50;99.90;;;;;;5068107;28;20209;-77
2021/04/08 07:29:46;;;;;;;199.25;180.25;;;6.50;99.90;;;;;;5066229;28;20220;-77
2021/04/08 07:32:15;;;;;;;186.68;168.20;;;6.60;99.90;;;;;;5075458;28;20208;-76
2021/04/08 07:34:43;;;;;;;204.93;185.85;;;6.80;99.90;;;;;;5068063;28;20201;-76
2021/04/08 07:37:10;;;;;;;211.40;191.40;;;6.90;99.90;;;;;;5064658;28;20247;-77
2021/04/08 07:39:39;;;;;;;162.85;146.38;;;7.00;99.90;;;;;;5078334;28;20204;-77
2021/04/08 07:42:08;;;;;;;166.13;149.40;;;7.00;99.90;;;;;;5077100;28;20206;-76
2021/04/08 07:44:46;;;;;;;181.93;163.95;;;6.90;99.90;;;;;;5074810;28;20208;-77
2021/04/08 07:47:25;;;;;;;182.45;164.20;;;6.70;99.90;;;;;;5070396;28;20561;-77
2021/04/08 07:49:54;;;;;;;168.50;151.35;;;6.60;99.90;;;;;;5078430;28;20214;-76
2021/04/08 07:52:31;;;;;;;162.00;145.20;;;6.60;99.90;;;;;;5067810;28;20213;-75
2021/04/08 07:55:10;;;;;;;184.43;167.00;;;6.70;99.90;;;;;;5064361;28;20235;-76
2021/04/08 07:58:00;;;;;;;185.88;168.20;;;6.70;99.90;;;;;;5073828;28;20212;-76
2021/04/08 08:03:25;;;;;;;181.32;163.98;;;6.80;99.90;;;;;;5063722;28;20240;-76
2021/04/08 08:05:57;;;;;;;186.98;169.20;;;7.00;99.90;;;;;;5071811;28;20353;-76
2021/04/08 08:08:25;;;;;;;171.98;155.55;;;7.30;99.90;;;;;;5069997;28;20197;-76
2021/04/08 08:10:56;;;;;;;213.65;194.50;;;7.70;99.90;;;;;;5070315;28;20265;-76
2021/04/08 08:13:28;;;;;;;186.95;171.88;;;8.00;99.90;;;;;;5066437;28;20202;-76
2021/04/08 08:15:58;;;;;;;202.20;185.82;;;8.10;99.90;;;;;;5073299;28;20217;-76
2021/04/08 08:18:30;;;;;;;227.70;209.57;;;8.30;99.90;;;;;;5070672;28;20661;-77
2021/04/08 08:21:09;;;;;;;203.38;186.57;;;8.40;99.90;;;;;;5071309;28;20212;-76
2021/04/08 08:23:37;;;;;;;191.50;175.40;;;8.50;99.90;;;;;;5070662;28;20243;-76
2021/04/08 08:26:26;;;;;;;220.80;204.73;;;8.60;99.90;;;;;;5067292;28;20225;-77
2021/04/08 08:28:53;;;;;;;234.15;216.98;;;8.90;99.90;;;;;;5070022;28;20209;-76
2021/04/08 08:31:37;;;;;;;195.98;180.18;;;9.10;99.90;;;;;;5080833;28;20209;-76
2021/04/08 08:34:08;;;;;;;184.68;170.60;;;9.40;99.90;;;;;;5065296;28;20227;-76
2021/04/08 08:36:35;;;;;;;200.93;185.10;;;9.50;99.90;;;;;;5077119;28;20206;-76
2021/04/08 08:39:05;;;;;;;212.43;197.23;;;9.60;99.90;;;;;;5081981;28;20200;-76
2021/04/08 08:41:34;;;;;;;237.70;220.90;;;9.70;99.90;;;;;;5067315;28;20206;-76
2021/04/08 08:44:02;;;;;;;242.88;225.65;;;9.80;99.90;;;;;;5076105;28;20204;-76
2021/04/08 08:46:34;;;;;;;226.18;210.48;;;10.00;99.90;;;;;;5077743;28;20228;-77
2021/04/08 08:49:02;;;;;;;229.48;212.43;;;9.70;99.90;;;;;;5066770;28;20214;-76
2021/04/08 08:51:29;;;;;;;234.20;217.57;;;9.30;99.90;;;;;;5076285;28;20204;-76
2021/04/08 08:53:56;;;;;;;203.57;188.77;;;9.20;99.90;;;;;;5072596;28;20205;-76
2021/04/08 08:56:25;;;;;;;229.18;211.85;;;9.20;99.90;;;;;;5068567;28;20245;-76
2021/04/08 08:58:54;;;;;;;184.27;170.38;;;9.50;99.90;;;;;;5068833;28;20267;-76
2021/04/08 09:01:20;;;;;;;213.95;198.48;;;9.60;99.90;;;;;;5077210;28;20205;-76
2021/04/08 09:03:49;;;;;;;230.68;214.45;;;9.60;99.90;;;;;;5069694;28;20255;-76
2021/04/08 09:06:20;;;;;;;191.52;178.63;;;10.10;99.90;;;;;;5071756;28;20251;-77
2021/04/08 09:08:51;;;;;;;182.50;170.40;;;10.50;99.90;;;;;;5077448;28;20250;-77
2021/04/08 09:11:22;;;;;;;203.68;190.57;;;10.70;99.90;;;;;;5072053;28;20254;-77
2021/04/08 09:13:51;;;;;;;176.90;166.13;;;10.60;98.90;;;;;;5068422;28;20251;-77
2021/04/08 09:16:18;;;;;;;201.40;188.98;;;10.90;99.90;;;;;;5072129;28;20208;-77
2021/04/08 09:18:57;;;;;;;195.75;183.57;;;11.20;98.90;;;;;;5069599;28;20228;-77
2021/04/08 09:21:26;;;;;;;185.75;174.48;;;11.10;98.80;;;;;;5068618;28;20197;-76
2021/04/08 09:24:13;;;;;;;157.85;149.38;;;12.00;99.40;;;;;;5071135;28;20223;-76
2021/04/08 09:26:41;;;;;;;128.65;120.95;;;12.30;96.80;;;;;;5079905;28;20230;-76
2021/04/08 09:29:09;;;;;;;109.10;103.50;;;12.40;95.40;;;;;;5068077;28;20638;-76
2021/04/08 09:31:35;;;;;;;113.40;107.15;;;12.10;94.80;;;;;;5069996;28;20216;-76
2021/04/08 09:34:03;;;;;;;127.07;120.47;;;11.90;94.60;;;;;;5068371;28;20193;-76
2021/04/08 09:36:43;;;;;;;127.78;121.10;;;11.80;94.80;;;;;;5073129;28;20206;-76
2021/04/08 09:39:26;;;;;;;125.15;118.70;;;11.60;91.00;;;;;;5079744;28;20200;-76
2021/04/08 09:42:04;;;;;;;125.30;118.65;;;11.40;90.40;;;;;;5069744;28;20292;-76
2021/04/08 09:44:31;;;;;;;142.18;133.77;;;11.20;89.90;;;;;;5068497;28;20211;-76
2021/04/08 09:46:59;;;;;;;142.40;134.25;;;10.90;91.10;;;;;;5065764;28;20201;-76
2021/04/08 09:49:48;;;;;;;145.55;137.27;;;10.60;89.10;;;;;;5066303;28;20236;-76
2021/04/08 09:52:18;;;;;;;148.13;139.43;;;10.30;90.50;;;;;;5076190;28;20235;-76
2021/04/08 09:54:51;;;;;;;148.48;138.93;;;10.40;89.60;;;;;;5077047;28;20208;-76
2021/04/08 09:57:37;;;;;;;145.52;136.57;;;10.30;82.20;;;;;;5070180;28;20200;-76
2021/04/08 10:00:06;;;;;;;158.00;147.32;;;10.20;85.10;;;;;;5066096;28;20208;-76
2021/04/08 10:08:37;;;;;;;192.35;178.35;;;9.80;89.00;;;;;;5105980;28;20208;-76
2021/04/08 10:11:05;;;;;;;198.82;183.68;;;9.80;88.70;;;;;;5107091;28;20211;-76
2021/04/08 10:13:33;;;;;;;196.25;181.98;;;9.60;84.60;;;;;;5110148;28;20230;-77
2021/04/08 10:16:01;;;;;;;191.93;178.10;;;9.50;84.40;;;;;;5105633;28;20204;-76
2021/04/08 10:18:29;;;;;;;204.88;190.45;;;9.50;86.80;;;;;;5103673;28;20207;-76
2021/04/08 10:20:58;;;;;;;173.70;160.32;;;9.80;86.00;;;;;;5118962;28;20207;-76
2021/04/08 10:23:34;;;;;;;217.48;202.43;;;9.80;84.60;;;;;;5105628;28;20224;-76
2021/04/08 10:26:02;;;;;;;207.90;193.75;;;10.00;84.90;;;;;;5099756;28;20221;-76
2021/04/08 10:28:38;;;;;;;183.30;170.63;;;10.40;84.80;;;;;;5102513;28;20199;-76
2021/04/08 10:31:16;;;;;;;220.23;205.80;;;10.30;85.10;;;;;;5085977;28;20205;-75
2021/04/08 10:33:42;;;;;;;215.05;200.48;;;10.30;83.70;;;;;;5107157;28;20211;-76
2021/04/08 10:36:09;;;;;;;222.60;207.15;;;10.20;80.50;;;;;;5114518;28;20513;-75
2021/04/08 10:38:37;;;;;;;211.43;197.05;;;10.00;79.70;;;;;;5111053;28;20200;-76
2021/04/08 10:41:04;;;;;;;213.75;199.73;;;10.10;81.70;;;;;;5104437;28;20200;-76
2021/04/08 10:43:30;;;;;;;202.95;189.07;;;10.20;83.50;;;;;;5108150;28;20224;-75
2021/04/08 10:45:58;;;;;;;224.20;209.43;;;10.50;80.80;;;;;;5105122;28;20207;-75
2021/04/08 10:48:27;;;;;;;179.43;168.30;;;10.70;78.70;;;;;;5107451;28;20204;-76
2021/04/08 10:50:55;;;;;;;144.65;136.52;;;11.10;81.00;;;;;;5108219;28;20208;-76
2021/04/08 10:53:25;;;;;;;151.90;143.07;;;11.20;79.00;;;;;;5106521;28;20207;-76
2021/04/08 10:55:53;;;;;;;138.02;130.07;;;11.10;77.00;;;;;;5088901;28;20268;-76
2021/04/08 10:58:22;;;;;;;132.32;124.20;;;10.90;77.40;;;;;;5117917;28;20196;-76
2021/04/08 11:00:57;;;;;;;147.20;138.65;;;10.40;78.10;;;;;;5105222;28;20237;-76
2021/04/08 11:08:53;;;;;;;141.90;131.93;;;9.40;80.70;;;;;;5099630;28;20220;-76
2021/04/08 11:11:35;;;;;;;169.82;158.55;;;9.10;81.50;;;;;;5099097;28;20199;-76
2021/04/08 11:19:24;;;;;;;163.52;151.85;;;9.00;82.00;;;;;;5092388;28;20212;-76
2021/04/08 11:21:51;;;;;;;153.10;142.73;;;9.00;81.70;;;;;;5091924;28;20200;-77
2021/04/08 11:24:18;;;;;;;168.57;157.07;;;9.00;81.50;;;;;;5091339;28;20230;-77
2021/04/08 11:26:51;;;;;;;155.88;144.60;;;9.10;80.50;;;;;;5091454;28;20569;-77
2021/04/08 11:29:22;;;;;;;168.07;156.45;;;9.10;80.00;;;;;;5085892;28;20787;-77
2021/04/08 11:32:00;;;;;;;156.77;144.98;;;9.40;82.50;;;;;;5093343;28;20826;-77
2021/04/08 11:34:27;;;;;;;168.48;156.60;;;9.70;82.50;;;;;;5100979;28;20208;-77
2021/04/08 11:36:54;;;;;;;191.27;178.15;;;9.80;80.80;;;;;;5087004;28;20205;-77
2021/04/08 11:39:20;;;;;;;177.18;164.45;;;9.60;80.90;;;;;;5085280;28;20205;-77
2021/04/08 11:41:47;;;;;;;178.70;166.57;;;9.70;80.20;;;;;;5092461;28;20204;-76
2021/04/08 11:44:25;;;;;;;187.13;174.05;;;9.90;81.20;;;;;;5097497;28;20235;-76
2021/04/08 11:46:52;;;;;;;169.82;158.52;;;10.10;80.90;;;;;;5080959;28;20212;-76
2021/04/08 11:49:20;;;;;;;152.38;141.98;;;10.30;79.10;;;;;;5092606;28;20197;-76
2021/04/08 11:51:48;;;;;;;154.35;144.02;;;10.50;80.00;;;;;;5090815;28;20211;-77
2021/04/08 11:54:20;;;;;;;163.52;152.45;;;10.80;79.10;;;;;;5080364;28;20204;-78
2021/04/08 11:56:47;;;;;;;156.05;146.85;;;11.00;76.50;;;;;;5082830;28;20205;-77
2021/04/08 11:59:14;;;;;;;194.57;182.40;;;10.90;76.60;;;;;;5080632;28;20201;-77
2021/04/08 12:01:45;;;;;;;174.40;163.90;;;10.90;74.70;;;;;;5086323;28;20300;-76
2021/04/08 12:04:15;;;;;;;175.55;164.65;;;10.90;75.30;;;;;;5087928;28;20262;-76
2021/04/08 12:06:44;;;;;;;175.38;164.43;;;10.90;78.10;;;;;;5092693;28;20200;-77
2021/04/08 12:09:10;;;;;;;165.18;154.23;;;11.20;76.90;;;;;;5091974;28;20200;-76
2021/04/08 12:11:50;;;;;;;179.68;168.77;;;11.30;75.00;;;;;;5083518;28;20223;-75
2021/04/08 12:14:17;;;;;;;177.80;167.57;;;11.40;75.50;;;;;;5083024;28;20208;-75
2021/04/08 12:16:59;;;;;;;173.50;162.85;;;11.50;73.20;;;;;;5088671;28;20201;-76
2021/04/08 12:19:26;;;;;;;177.57;167.10;;;11.10;73.00;;;;;;5086609;28;20249;-75
2021/04/08 12:22:08;;;;;;;159.02;149.38;;;10.80;73.70;;;;;;5088793;28;20200;-75
2021/04/08 12:24:35;;;;;;;172.77;161.60;;;10.90;75.40;;;;;;5088976;28;20346;-76
2021/04/08 12:27:03;;;;;;;188.40;175.52;;;10.50;73.00;;;;;;5089064;28;20196;-77
2021/04/08 12:29:29;;;;;;;176.07;165.23;;;10.10;74.10;;;;;;5095666;28;20193;-76
2021/04/08 12:31:58;;;;;;;183.07;171.32;;;10.10;74.30;;;;;;5093214;28;20211;-76
2021/04/08 12:34:24;;;;;;;184.75;172.98;;;10.20;76.90;;;;;;5088638;28;20242;-76
2021/04/08 12:36:51;;;;;;;191.90;179.88;;;10.30;76.00;;;;;;5086470;28;20205;-76
2021/04/08 12:39:23;;;;;;;187.95;175.63;;;10.20;74.10;;;;;;5093349;28;20201;-76
2021/04/08 12:41:50;;;;;;;191.50;178.98;;;10.00;75.50;;;;;;5087779;28;20208;-76
2021/04/08 12:44:16;;;;;;;180.32;167.30;;;9.80;76.70;;;;;;5086501;28;20240;-76
2021/04/08 12:46:43;;;;;;;157.27;145.82;;;9.60;76.50;;;;;;5090539;28;20205;-77
2021/04/08 12:49:10;;;;;;;168.00;156.63;;;9.40;77.10;;;;;;5098388;28;20204;-76
2021/04/08 12:51:37;;;;;;;173.80;161.10;;;9.60;78.60;;;;;;5094554;28;20204;-76